Time;durP1;ratioP1;P1;durP2;ratioP2;P2;SDS_P1;SDS_P2;PMS_P1;PMS_P2;Temp;Humidity;BMP_temperature;BMP_pressure;BME280_temperature;BME280_humidity;BME280_pressure;Samples;Min_cycle;Max_cycle;Signal;HPM_P1;HPM_P2
2022/08/07 00:01:19;;;;;;;8.18;5.47;;;;;;;;;;2340189;53;21043;-76
2022/08/07 00:03:46;;;;;;;9.18;5.60;;;;;;;;;;2333352;57;21114;-78
2022/08/07 00:06:14;;;;;;;6.78;5.32;;;;;;;;;;2332396;57;21107;-76
2022/08/07 00:08:41;;;;;;;8.00;5.68;;;;;;;;;;2333496;57;21047;-77
2022/08/07 00:11:08;;;;;;;10.40;5.72;;;;;;;;;;2370017;53;21031;-76
2022/08/07 00:13:36;;;;;;;8.88;5.53;;;;;;;;;;2333150;57;21138;-77
2022/08/07 00:16:03;;;;;;;9.95;6.15;;;;;;;;;;2333078;57;21020;-76
2022/08/07 00:18:30;;;;;;;9.43;5.85;;;;;;;;;;2332949;57;21114;-76
2022/08/07 00:20:58;;;;;;;10.20;5.72;;;;;;;;;;2333143;57;21605;-76
2022/08/07 00:23:26;;;;;;;7.53;5.40;;;;;;;;;;2333645;57;21546;-75
2022/08/07 00:25:53;;;;;;;11.90;5.93;;;;;;;;;;2333078;57;21135;-76
2022/08/07 00:28:20;;;;;;;9.32;5.95;;;;;;;;;;2333466;57;21043;-74
2022/08/07 00:30:48;;;;;;;8.27;5.68;;;;;;;;;;2333228;57;21119;-77
2022/08/07 00:33:15;;;;;;;10.35;5.53;;;;;;;;;;2333435;57;21130;-79
2022/08/07 00:35:42;;;;;;;7.25;5.37;;;;;;;;;;2332798;57;21187;-75
2022/08/07 00:38:09;;;;;;;6.53;4.80;;;;;;;;;;2333509;57;21062;-76
2022/08/07 00:40:37;;;;;;;7.53;5.35;;;;;;;;;;2333663;57;21139;-76
2022/08/07 00:43:04;;;;;;;8.05;5.50;;;;;;;;;;2333595;57;21123;-76
2022/08/07 00:45:31;;;;;;;8.98;4.97;;;;;;;;;;2332570;57;21131;-77
2022/08/07 00:47:58;;;;;;;7.75;4.87;;;;;;;;;;2332799;57;21103;-76
2022/08/07 00:50:25;;;;;;;19.35;5.95;;;;;;;;;;2333429;57;21044;-76
2022/08/07 00:52:52;;;;;;;7.95;5.55;;;;;;;;;;2333481;57;21317;-75
2022/08/07 00:55:20;;;;;;;6.75;5.15;;;;;;;;;;2333175;57;21051;-76
2022/08/07 00:57:47;;;;;;;10.38;6.25;;;;;;;;;;2333511;57;21051;-77
2022/08/07 01:00:14;;;;;;;7.90;5.62;;;;;;;;;;2333597;57;21059;-78
2022/08/07 01:02:42;;;;;;;9.57;6.25;;;;;;;;;;2338907;53;21202;-78
2022/08/07 01:05:10;;;;;;;8.48;5.12;;;;;;;;;;2332798;57;21055;-78
2022/08/07 01:07:37;;;;;;;9.50;6.45;;;;;;;;;;2332640;57;21186;-77
2022/08/07 01:10:06;;;;;;;8.88;5.87;;;;;;;;;;2333224;57;21118;-77
2022/08/07 01:12:33;;;;;;;9.57;5.82;;;;;;;;;;2333339;57;21619;-78
2022/08/07 01:15:00;;;;;;;8.27;5.50;;;;;;;;;;2333175;57;21154;-77
2022/08/07 01:17:28;;;;;;;9.60;5.60;;;;;;;;;;2341099;53;21039;-77
2022/08/07 01:20:01;;;;;;;7.15;5.45;;;;;;;;;;2332895;57;21050;-78
2022/08/07 01:22:28;;;;;;;8.60;5.65;;;;;;;;;;2352524;53;21123;-78
2022/08/07 01:24:56;;;;;;;9.27;5.18;;;;;;;;;;2332659;57;21082;-76
2022/08/07 01:27:23;;;;;;;11.05;6.12;;;;;;;;;;2333181;57;21111;-74
2022/08/07 01:29:50;;;;;;;8.40;5.70;;;;;;;;;;2357595;53;21099;-76
2022/08/07 01:32:17;;;;;;;8.25;5.15;;;;;;;;;;2333675;57;21111;-76
2022/08/07 01:34:44;;;;;;;9.45;5.68;;;;;;;;;;2332934;57;21091;-77
2022/08/07 01:37:15;;;;;;;9.75;5.65;;;;;;;;;;2332511;57;21043;-75
2022/08/07 01:39:43;;;;;;;11.23;5.93;;;;;;;;;;2333608;57;21130;-74
2022/08/07 01:42:10;;;;;;;8.25;5.20;;;;;;;;;;2332454;57;21165;-77
2022/08/07 01:44:37;;;;;;;8.32;5.70;;;;;;;;;;2333657;57;21099;-77
2022/08/07 01:47:04;;;;;;;8.07;5.62;;;;;;;;;;2333103;57;21024;-77
2022/08/07 01:49:32;;;;;;;9.45;6.12;;;;;;;;;;2333059;57;21080;-79
2022/08/07 01:51:59;;;;;;;9.70;5.95;;;;;;;;;;2332883;57;21131;-78
2022/08/07 01:54:28;;;;;;;6.95;5.00;;;;;;;;;;2333497;57;21056;-77
2022/08/07 01:56:57;;;;;;;7.95;5.03;;;;;;;;;;2332840;57;21055;-77
2022/08/07 01:59:26;;;;;;;7.85;5.40;;;;;;;;;;2332585;57;21035;-77
2022/08/07 02:01:56;;;;;;;7.45;5.45;;;;;;;;;;2333495;57;21119;-76
2022/08/07 02:04:26;;;;;;;10.32;5.68;;;;;;;;;;2332908;57;21047;-76
2022/08/07 02:06:55;;;;;;;7.07;5.43;;;;;;;;;;2332616;57;21568;-76
2022/08/07 02:09:23;;;;;;;8.15;5.75;;;;;;;;;;2333399;57;21432;-75
2022/08/07 02:11:51;;;;;;;11.65;6.05;;;;;;;;;;2333388;57;21054;-76
2022/08/07 02:14:19;;;;;;;9.93;6.93;;;;;;;;;;2333306;57;21055;-75
2022/08/07 02:16:47;;;;;;;11.15;7.00;;;;;;;;;;2332634;57;21130;-76
2022/08/07 02:19:15;;;;;;;7.85;5.93;;;;;;;;;;2332928;57;21122;-77
2022/08/07 02:21:43;;;;;;;9.25;6.68;;;;;;;;;;2332952;57;21036;-77
2022/08/07 02:24:11;;;;;;;11.45;6.45;;;;;;;;;;2332838;57;21051;-75
2022/08/07 02:26:38;;;;;;;11.27;6.30;;;;;;;;;;2332973;57;21400;-77
2022/08/07 02:29:06;;;;;;;8.73;6.15;;;;;;;;;;2398239;53;21076;-76
2022/08/07 02:31:35;;;;;;;12.98;6.62;;;;;;;;;;2342472;53;21534;-77
2022/08/07 02:34:03;;;;;;;9.65;6.15;;;;;;;;;;2449919;53;21079;-76
2022/08/07 02:36:30;;;;;;;12.40;6.82;;;;;;;;;;2332241;57;21051;-75
2022/08/07 02:38:58;;;;;;;10.15;6.18;;;;;;;;;;2577873;53;21103;-75
2022/08/07 02:41:26;;;;;;;10.25;6.18;;;;;;;;;;2333180;57;21111;-75
2022/08/07 02:43:53;;;;;;;8.15;6.07;;;;;;;;;;2333325;57;21038;-79
2022/08/07 02:46:23;;;;;;;10.10;6.40;;;;;;;;;;2332515;57;21052;-78
2022/08/07 02:48:50;;;;;;;7.85;5.57;;;;;;;;;;2546364;53;21119;-76
2022/08/07 02:51:18;;;;;;;9.52;5.75;;;;;;;;;;2534138;53;21542;-77
2022/08/07 02:53:52;;;;;;;8.30;6.22;;;;;;;;;;2577756;53;21047;-78
2022/08/07 02:56:22;;;;;;;8.00;5.87;;;;;;;;;;2332545;57;21030;-77
2022/08/07 02:58:51;;;;;;;10.40;5.75;;;;;;;;;;2332682;57;21110;-77
2022/08/07 03:01:21;;;;;;;10.27;6.32;;;;;;;;;;2340586;53;21067;-76
2022/08/07 03:03:49;;;;;;;6.82;5.10;;;;;;;;;;2333435;57;21099;-76
2022/08/07 03:06:18;;;;;;;8.93;6.00;;;;;;;;;;2332342;57;21491;-78
2022/08/07 03:08:46;;;;;;;7.72;5.03;;;;;;;;;;2332627;57;21056;-79
2022/08/07 03:11:13;;;;;;;7.10;5.50;;;;;;;;;;2374776;53;21047;-78
2022/08/07 03:13:41;;;;;;;7.22;4.72;;;;;;;;;;2333161;57;21020;-78
2022/08/07 03:16:08;;;;;;;6.40;4.60;;;;;;;;;;2331267;57;21051;-76
2022/08/07 03:18:35;;;;;;;7.47;5.57;;;;;;;;;;2332865;57;21372;-78
2022/08/07 03:21:04;;;;;;;8.85;5.15;;;;;;;;;;2332991;57;21099;-79
2022/08/07 03:23:32;;;;;;;7.90;5.05;;;;;;;;;;2333480;57;21039;-78
2022/08/07 03:26:00;;;;;;;7.75;5.10;;;;;;;;;;2332721;55;21546;-78
2022/08/07 03:28:28;;;;;;;8.68;5.90;;;;;;;;;;2333750;57;21063;-76
2022/08/07 03:33:44;;;;;;;9.27;6.07;;;;;;;;;;2400603;53;21043;-75
2022/08/07 03:36:13;;;;;;;8.07;5.55;;;;;;;;;;2332725;57;21123;-78
2022/08/07 03:38:41;;;;;;;9.55;5.80;;;;;;;;;;2333782;57;21055;-79
2022/08/07 03:41:09;;;;;;;9.70;5.60;;;;;;;;;;2333645;57;21126;-78
2022/08/07 03:43:37;;;;;;;7.32;5.10;;;;;;;;;;2333720;57;21055;-77
2022/08/07 03:46:05;;;;;;;9.00;5.80;;;;;;;;;;2332959;57;21131;-78
2022/08/07 03:48:33;;;;;;;11.57;5.47;;;;;;;;;;2332197;57;21103;-78
2022/08/07 03:51:00;;;;;;;8.48;6.43;;;;;;;;;;2333232;57;21047;-77
2022/08/07 03:53:27;;;;;;;8.65;6.10;;;;;;;;;;2333405;57;21109;-77
2022/08/07 03:55:55;;;;;;;7.40;5.30;;;;;;;;;;2333095;57;21110;-78
2022/08/07 03:58:23;;;;;;;9.25;6.32;;;;;;;;;;2333573;57;21114;-78
2022/08/07 04:00:52;;;;;;;11.65;6.75;;;;;;;;;;2333113;57;21047;-76
2022/08/07 04:03:19;;;;;;;8.73;5.90;;;;;;;;;;2333572;57;21110;-77
2022/08/07 04:05:46;;;;;;;10.65;7.20;;;;;;;;;;2332642;57;21044;-78
2022/08/07 04:08:15;;;;;;;11.35;6.97;;;;;;;;;;2540667;53;21217;-78
2022/08/07 04:10:42;;;;;;;9.57;6.57;;;;;;;;;;2333744;57;21051;-77
2022/08/07 04:13:11;;;;;;;9.07;5.75;;;;;;;;;;2442064;53;21055;-79
2022/08/07 04:15:39;;;;;;;11.15;7.75;;;;;;;;;;2333078;57;21059;-76
2022/08/07 04:18:06;;;;;;;10.52;7.03;;;;;;;;;;2333455;57;21031;-78
2022/08/07 04:20:33;;;;;;;9.43;6.68;;;;;;;;;;2333055;57;21055;-75
2022/08/07 04:23:01;;;;;;;9.15;6.57;;;;;;;;;;2386506;53;21055;-76
2022/08/07 04:25:29;;;;;;;10.55;7.00;;;;;;;;;;2332802;57;21110;-76
2022/08/07 04:27:56;;;;;;;12.37;6.72;;;;;;;;;;2332958;57;21037;-79
2022/08/07 04:30:23;;;;;;;10.93;7.18;;;;;;;;;;2333087;57;21047;-77
2022/08/07 04:32:50;;;;;;;10.23;6.28;;;;;;;;;;2333381;57;21043;-79
2022/08/07 04:35:17;;;;;;;10.20;6.45;;;;;;;;;;2332714;57;21039;-78
2022/08/07 04:37:45;;;;;;;10.65;6.25;;;;;;;;;;2351288;53;21111;-78
2022/08/07 04:40:13;;;;;;;10.75;6.85;;;;;;;;;;2333639;57;21047;-78
2022/08/07 04:42:40;;;;;;;7.55;5.62;;;;;;;;;;2332720;57;21111;-76
2022/08/07 04:45:10;;;;;;;7.85;5.15;;;;;;;;;;2353322;53;21807;-76
2022/08/07 04:47:39;;;;;;;7.65;5.30;;;;;;;;;;2332742;57;21130;-76
2022/08/07 04:50:10;;;;;;;7.00;5.22;;;;;;;;;;2333707;57;21059;-75
2022/08/07 04:52:41;;;;;;;9.63;5.30;;;;;;;;;;2399007;53;21819;-77
2022/08/07 04:55:13;;;;;;;8.68;5.82;;;;;;;;;;2333141;57;21054;-79
2022/08/07 04:57:43;;;;;;;6.72;4.97;;;;;;;;;;2338453;53;21034;-75
2022/08/07 05:00:13;;;;;;;7.47;5.40;;;;;;;;;;2335006;53;21063;-79
2022/08/07 05:02:44;;;;;;;7.97;5.15;;;;;;;;;;2333073;57;21110;-78
2022/08/07 05:05:15;;;;;;;9.63;6.07;;;;;;;;;;2332583;57;21066;-77
2022/08/07 05:07:44;;;;;;;8.48;5.95;;;;;;;;;;2350849;53;21050;-75
2022/08/07 05:10:13;;;;;;;9.35;6.35;;;;;;;;;;2333325;57;21032;-78
2022/08/07 05:12:42;;;;;;;10.02;6.53;;;;;;;;;;2332371;57;21203;-78
2022/08/07 05:15:17;;;;;;;10.95;6.68;;;;;;;;;;2333418;57;21130;-78
2022/08/07 05:17:48;;;;;;;10.45;7.10;;;;;;;;;;2333657;57;21051;-76
2022/08/07 05:20:17;;;;;;;15.05;6.65;;;;;;;;;;2340810;53;21059;-77
2022/08/07 05:22:45;;;;;;;10.10;6.20;;;;;;;;;;2332548;57;21083;-78
2022/08/07 05:25:14;;;;;;;10.15;6.75;;;;;;;;;;2332399;57;21059;-77
2022/08/07 05:27:43;;;;;;;12.55;7.05;;;;;;;;;;2332739;57;21145;-78
2022/08/07 05:30:11;;;;;;;9.07;6.43;;;;;;;;;;2333654;57;21043;-78
2022/08/07 05:32:39;;;;;;;10.35;6.60;;;;;;;;;;2333359;57;21059;-78
2022/08/07 05:35:08;;;;;;;11.02;7.57;;;;;;;;;;2333065;57;22364;-75
2022/08/07 05:37:35;;;;;;;10.77;7.05;;;;;;;;;;2350956;53;21016;-78
2022/08/07 05:40:03;;;;;;;9.20;5.93;;;;;;;;;;2358317;55;21136;-74
2022/08/07 05:42:30;;;;;;;9.48;7.03;;;;;;;;;;2261766;59;21084;-77
2022/08/07 05:44:58;;;;;;;9.82;6.72;;;;;;;;;;2261972;59;21132;-76
2022/08/07 05:47:25;;;;;;;11.18;6.72;;;;;;;;;;2261201;59;21610;-75
2022/08/07 05:49:53;;;;;;;10.23;6.65;;;;;;;;;;2261168;59;21036;-75
2022/08/07 05:52:20;;;;;;;9.93;6.53;;;;;;;;;;2261313;59;21723;-76
2022/08/07 05:54:48;;;;;;;9.77;6.55;;;;;;;;;;2262111;59;21132;-73
2022/08/07 05:57:15;;;;;;;12.70;7.57;;;;;;;;;;2261327;59;21084;-77
2022/08/07 05:59:43;;;;;;;10.68;6.97;;;;;;;;;;2490625;55;21052;-77
2022/08/07 06:02:11;;;;;;;13.65;6.72;;;;;;;;;;2261579;59;21220;-76
2022/08/07 06:04:41;;;;;;;11.10;6.50;;;;;;;;;;2490463;55;21072;-77
2022/08/07 06:07:09;;;;;;;12.50;7.12;;;;;;;;;;2261541;59;21064;-78
2022/08/07 06:09:36;;;;;;;12.15;7.47;;;;;;;;;;2262300;59;21052;-77
2022/08/07 06:12:04;;;;;;;12.50;7.05;;;;;;;;;;2490662;55;21132;-73
2022/08/07 06:14:31;;;;;;;10.23;6.15;;;;;;;;;;2262035;59;21155;-75
2022/08/07 06:16:58;;;;;;;9.35;6.22;;;;;;;;;;2490263;55;21060;-77
2022/08/07 06:19:26;;;;;;;11.35;5.95;;;;;;;;;;2490477;55;21629;-76
2022/08/07 06:21:54;;;;;;;11.05;5.95;;;;;;;;;;2490901;55;21079;-77
2022/08/07 06:24:21;;;;;;;8.77;6.22;;;;;;;;;;2490742;55;21064;-77
2022/08/07 06:26:49;;;;;;;8.57;6.30;;;;;;;;;;2261785;59;21136;-78
2022/08/07 06:29:16;;;;;;;9.27;6.03;;;;;;;;;;2262346;59;21067;-77
2022/08/07 06:31:43;;;;;;;7.47;5.45;;;;;;;;;;2490405;55;21052;-78
2022/08/07 06:34:11;;;;;;;8.73;5.80;;;;;;;;;;2490305;55;21079;-76
2022/08/07 06:36:38;;;;;;;11.18;6.35;;;;;;;;;;2261243;59;21092;-75
2022/08/07 06:39:05;;;;;;;8.38;5.03;;;;;;;;;;2261255;59;21064;-77
2022/08/07 06:41:35;;;;;;;10.93;5.75;;;;;;;;;;2490391;55;21083;-75
2022/08/07 06:44:03;;;;;;;12.10;6.22;;;;;;;;;;2261739;59;21068;-77
2022/08/07 06:46:30;;;;;;;10.55;6.00;;;;;;;;;;2489905;55;21144;-76
2022/08/07 06:48:57;;;;;;;9.95;4.20;;;;;;;;;;2260816;59;21163;-78
2022/08/07 06:51:27;;;;;;;10.23;5.47;;;;;;;;;;2261249;59;21068;-73
2022/08/07 06:53:56;;;;;;;9.07;5.03;;;;;;;;;;2260318;59;21052;-77
2022/08/07 06:56:38;;;;;;;6.93;4.97;;;;;;;;;;2261591;59;21060;-78
2022/08/07 06:59:07;;;;;;;8.95;4.70;;;;;;;;;;2490877;55;21151;-75
2022/08/07 07:01:35;;;;;;;8.77;4.75;;;;;;;;;;2262170;59;21151;-77
2022/08/07 07:04:02;;;;;;;6.18;4.80;;;;;;;;;;2261530;59;21164;-74
2022/08/07 07:06:30;;;;;;;6.18;4.55;;;;;;;;;;2261565;59;21135;-76
2022/08/07 07:09:15;;;;;;;8.13;4.80;;;;;;;;;;2489537;55;21631;-77
2022/08/07 07:11:43;;;;;;;8.85;4.72;;;;;;;;;;2262208;59;21076;-74
2022/08/07 07:14:11;;;;;;;6.72;4.72;;;;;;;;;;2262027;59;21135;-74
2022/08/07 07:16:39;;;;;;;7.90;4.45;;;;;;;;;;2260921;59;22279;-77
2022/08/07 07:19:07;;;;;;;6.90;4.50;;;;;;;;;;2261927;59;21056;-76
2022/08/07 07:21:36;;;;;;;6.55;4.80;;;;;;;;;;2261952;59;21554;-76
2022/08/07 07:24:03;;;;;;;6.62;4.62;;;;;;;;;;2262071;59;21079;-74
2022/08/07 07:26:32;;;;;;;7.87;4.62;;;;;;;;;;2489615;55;21151;-76
2022/08/07 07:29:02;;;;;;;6.65;4.43;;;;;;;;;;2261522;59;22286;-75
2022/08/07 07:31:31;;;;;;;7.72;4.15;;;;;;;;;;2490268;55;21068;-76
2022/08/07 07:33:59;;;;;;;8.15;4.95;;;;;;;;;;2261692;59;21147;-75
2022/08/07 07:36:27;;;;;;;6.85;4.00;;;;;;;;;;2261087;59;21219;-75
2022/08/07 07:38:54;;;;;;;7.93;4.15;;;;;;;;;;2260006;59;21068;-74
2022/08/07 07:41:22;;;;;;;6.62;3.92;;;;;;;;;;2488723;55;21091;-77
2022/08/07 07:43:51;;;;;;;7.60;4.18;;;;;;;;;;2489838;55;21100;-74
2022/08/07 07:46:21;;;;;;;8.82;4.43;;;;;;;;;;2260100;59;21060;-76
2022/08/07 07:48:50;;;;;;;7.07;4.18;;;;;;;;;;2489557;55;21091;-78
2022/08/07 07:51:18;;;;;;;5.07;3.62;;;;;;;;;;2489361;55;21056;-78
2022/08/07 07:53:46;;;;;;;6.40;3.95;;;;;;;;;;2490142;55;21559;-74
2022/08/07 07:56:14;;;;;;;8.38;4.80;;;;;;;;;;2489051;55;21048;-76
2022/08/07 07:58:41;;;;;;;6.25;4.43;;;;;;;;;;2488603;55;21175;-76
2022/08/07 08:01:09;;;;;;;6.20;3.85;;;;;;;;;;2261919;59;21136;-75
2022/08/07 08:03:37;;;;;;;5.95;3.80;;;;;;;;;;2261345;59;21084;-78
2022/08/07 08:06:06;;;;;;;6.25;4.07;;;;;;;;;;2488306;55;21076;-77
2022/08/07 08:08:34;;;;;;;6.32;4.10;;;;;;;;;;2260773;59;21109;-78
2022/08/07 08:11:02;;;;;;;6.22;4.43;;;;;;;;;;2261703;59;21084;-77
2022/08/07 08:13:30;;;;;;;8.68;4.30;;;;;;;;;;2488913;55;21076;-76
2022/08/07 08:16:00;;;;;;;5.40;4.05;;;;;;;;;;2488127;55;21683;-77
2022/08/07 08:18:28;;;;;;;6.82;4.30;;;;;;;;;;2261654;59;21140;-78
2022/08/07 08:20:56;;;;;;;9.02;4.35;;;;;;;;;;2261809;59;21571;-77
2022/08/07 08:28:58;;;;;;;5.03;3.70;;;;;;;;;;2261044;59;21072;-77
2022/08/07 08:31:26;;;;;;;6.30;3.70;;;;;;;;;;2489373;55;21068;-77
2022/08/07 08:33:53;;;;;;;7.12;4.50;;;;;;;;;;2261269;59;21121;-76
2022/08/07 08:36:22;;;;;;;5.28;3.90;;;;;;;;;;2488641;55;21065;-76
2022/08/07 08:38:49;;;;;;;6.40;3.83;;;;;;;;;;2261167;59;21135;-77
2022/08/07 08:41:21;;;;;;;8.20;4.28;;;;;;;;;;2488927;55;21072;-76
2022/08/07 08:43:51;;;;;;;6.25;4.30;;;;;;;;;;2260678;59;21361;-74
2022/08/07 08:46:24;;;;;;;7.50;4.32;;;;;;;;;;2260277;59;21373;-77
2022/08/07 08:48:55;;;;;;;9.27;4.22;;;;;;;;;;2261652;59;21072;-77
2022/08/07 08:51:26;;;;;;;6.95;3.60;;;;;;;;;;2488636;55;21535;-74
2022/08/07 08:53:56;;;;;;;6.60;4.28;;;;;;;;;;2491091;55;21152;-77
2022/08/07 08:56:25;;;;;;;6.60;4.07;;;;;;;;;;2260245;59;21056;-76
2022/08/07 08:58:55;;;;;;;8.30;4.47;;;;;;;;;;2260958;59;21044;-77
2022/08/07 09:01:26;;;;;;;6.00;3.83;;;;;;;;;;2260632;59;21056;-77
2022/08/07 09:03:56;;;;;;;6.78;4.37;;;;;;;;;;2260936;59;21129;-77
2022/08/07 09:06:32;;;;;;;6.05;3.87;;;;;;;;;;2487485;55;21111;-77
2022/08/07 09:09:07;;;;;;;5.70;4.12;;;;;;;;;;2260327;59;21063;-75
2022/08/07 09:11:39;;;;;;;10.35;4.65;;;;;;;;;;2260148;59;21171;-74
2022/08/07 09:14:11;;;;;;;6.12;4.45;;;;;;;;;;2260682;59;21649;-74
2022/08/07 09:16:44;;;;;;;6.45;4.70;;;;;;;;;;2260765;59;21538;-74
2022/08/07 09:19:24;;;;;;;9.25;4.78;;;;;;;;;;2259837;59;21088;-76
2022/08/07 09:21:57;;;;;;;6.18;4.62;;;;;;;;;;2258594;59;21060;-75
2022/08/07 09:24:33;;;;;;;8.13;4.22;;;;;;;;;;2259482;59;21072;-76
2022/08/07 09:27:04;;;;;;;4.85;3.92;;;;;;;;;;2488216;55;21127;-76
2022/08/07 09:29:38;;;;;;;5.45;4.05;;;;;;;;;;2487956;55;21131;-72
2022/08/07 09:32:12;;;;;;;6.05;3.80;;;;;;;;;;2260462;59;21378;-76
2022/08/07 09:34:44;;;;;;;5.18;3.60;;;;;;;;;;2261569;59;21794;-76
2022/08/07 09:39:50;;;;;;;5.72;3.47;;;;;;;;;;2355201;57;22081;-79
2022/08/07 09:42:23;;;;;;;7.93;3.97;;;;;;;;;;2367594;56;21557;-80
2022/08/07 09:44:54;;;;;;;6.05;3.92;;;;;;;;;;2626838;52;21047;-80
2022/08/07 09:47:28;;;;;;;5.07;3.97;;;;;;;;;;2627973;52;21067;-79
2022/08/07 09:49:59;;;;;;;5.70;3.90;;;;;;;;;;2627136;52;21047;-74
2022/08/07 09:52:29;;;;;;;6.18;3.53;;;;;;;;;;2627532;52;21094;-75
2022/08/07 09:55:01;;;;;;;5.12;3.37;;;;;;;;;;2373797;56;21747;-73
2022/08/07 09:57:50;;;;;;;5.97;4.05;;;;;;;;;;2626299;52;21082;-76
2022/08/07 10:00:20;;;;;;;5.50;3.72;;;;;;;;;;2356000;56;21039;-76
2022/08/07 10:03:05;;;;;;;7.70;4.30;;;;;;;;;;2628198;52;21113;-74
2022/08/07 10:05:57;;;;;;;4.55;3.50;;;;;;;;;;2628092;52;21611;-76
2022/08/07 10:08:37;;;;;;;6.53;3.78;;;;;;;;;;2327125;56;21648;-76
2022/08/07 10:11:11;;;;;;;4.28;3.28;;;;;;;;;;2628910;52;21058;-76
2022/08/07 10:13:46;;;;;;;4.37;3.67;;;;;;;;;;2628813;52;21055;-73
2022/08/07 10:16:22;;;;;;;6.53;3.70;;;;;;;;;;2626325;52;21031;-76
2022/08/07 10:19:05;;;;;;;8.77;4.07;;;;;;;;;;2628718;52;21526;-76
2022/08/07 10:21:40;;;;;;;6.85;4.22;;;;;;;;;;2375615;56;21039;-76
2022/08/07 10:24:21;;;;;;;7.90;3.87;;;;;;;;;;2629113;52;21031;-76
2022/08/07 10:26:56;;;;;;;4.18;3.20;;;;;;;;;;2628311;52;21026;-76
2022/08/07 10:29:34;;;;;;;4.53;3.08;;;;;;;;;;2374986;56;21137;-74
2022/08/07 10:32:13;;;;;;;5.37;3.35;;;;;;;;;;2374990;56;21122;-74
2022/08/07 10:34:47;;;;;;;4.20;3.40;;;;;;;;;;2374181;56;21079;-76
2022/08/07 10:37:27;;;;;;;4.65;3.28;;;;;;;;;;2628410;52;21121;-76
2022/08/07 10:39:58;;;;;;;4.80;3.50;;;;;;;;;;2375410;56;21054;-76
2022/08/07 10:42:29;;;;;;;5.93;3.40;;;;;;;;;;2629213;52;21035;-76
2022/08/07 10:45:01;;;;;;;4.37;3.20;;;;;;;;;;2375080;56;21170;-73
2022/08/07 10:47:35;;;;;;;4.60;2.97;;;;;;;;;;2374521;56;21062;-74
2022/08/07 10:50:08;;;;;;;5.15;3.70;;;;;;;;;;2628195;52;21109;-75
2022/08/07 10:52:38;;;;;;;4.53;3.05;;;;;;;;;;2373607;56;21039;-76
2022/08/07 10:55:11;;;;;;;5.45;3.05;;;;;;;;;;2374322;56;21135;-75
2022/08/07 10:57:43;;;;;;;4.00;3.00;;;;;;;;;;2373481;56;21023;-76
2022/08/07 11:00:12;;;;;;;4.85;2.80;;;;;;;;;;2627618;52;21526;-76
2022/08/07 11:02:44;;;;;;;3.83;3.12;;;;;;;;;;2373854;56;21042;-76
2022/08/07 11:05:24;;;;;;;5.72;2.80;;;;;;;;;;2627961;52;21090;-74
2022/08/07 11:07:56;;;;;;;4.03;2.90;;;;;;;;;;2374306;56;21039;-76
2022/08/07 11:10:28;;;;;;;4.62;3.15;;;;;;;;;;2373748;56;21111;-74
2022/08/07 11:12:58;;;;;;;4.55;3.37;;;;;;;;;;2373061;56;21044;-75
2022/08/07 11:15:28;;;;;;;3.55;2.50;;;;;;;;;;2627364;52;21031;-77
2022/08/07 11:17:59;;;;;;;7.12;4.15;;;;;;;;;;2374362;56;21043;-76
2022/08/07 11:20:35;;;;;;;5.45;3.05;;;;;;;;;;2374108;56;21042;-74
2022/08/07 11:23:07;;;;;;;4.40;2.53;;;;;;;;;;2374578;56;21031;-76
2022/08/07 11:25:36;;;;;;;5.87;3.67;;;;;;;;;;2373498;56;21054;-76
2022/08/07 11:28:08;;;;;;;3.78;2.58;;;;;;;;;;2373519;56;21042;-71
2022/08/07 11:30:42;;;;;;;4.45;2.95;;;;;;;;;;2374413;56;21047;-75
2022/08/07 11:33:16;;;;;;;4.72;3.17;;;;;;;;;;2374630;56;21051;-75
2022/08/07 11:35:47;;;;;;;3.15;2.75;;;;;;;;;;2374055;56;21043;-76
2022/08/07 11:38:17;;;;;;;3.97;2.45;;;;;;;;;;2373743;56;21078;-76
2022/08/07 11:40:49;;;;;;;3.65;2.60;;;;;;;;;;2373754;54;21134;-75
2022/08/07 11:43:20;;;;;;;5.25;2.95;;;;;;;;;;2336827;54;21059;-74
2022/08/07 11:45:56;;;;;;;4.45;2.95;;;;;;;;;;2300558;58;21058;-77
2022/08/07 11:48:43;;;;;;;4.35;3.08;;;;;;;;;;2305105;54;21050;-76
2022/08/07 11:51:24;;;;;;;3.17;2.62;;;;;;;;;;2301369;58;21134;-75
2022/08/07 11:53:57;;;;;;;5.00;2.67;;;;;;;;;;2301763;58;21034;-76
2022/08/07 11:56:36;;;;;;;4.12;2.72;;;;;;;;;;2301820;58;21062;-76
2022/08/07 11:59:16;;;;;;;4.93;3.00;;;;;;;;;;2302059;58;21089;-76
2022/08/07 12:01:49;;;;;;;3.00;2.62;;;;;;;;;;2301118;58;21059;-75
2022/08/07 12:04:31;;;;;;;3.97;2.78;;;;;;;;;;2302151;58;21054;-76
2022/08/07 12:07:01;;;;;;;4.43;3.00;;;;;;;;;;2301602;58;21082;-76
2022/08/07 12:09:34;;;;;;;4.60;2.67;;;;;;;;;;2301813;58;21067;-76
2022/08/07 12:12:04;;;;;;;5.05;2.50;;;;;;;;;;2302026;58;21114;-75
2022/08/07 12:14:34;;;;;;;2.90;2.50;;;;;;;;;;2302447;58;21095;-78
2022/08/07 12:17:02;;;;;;;3.72;2.95;;;;;;;;;;2317865;54;21094;-75
2022/08/07 12:19:36;;;;;;;4.50;2.50;;;;;;;;;;2302117;58;21055;-78
2022/08/07 12:22:06;;;;;;;4.03;2.50;;;;;;;;;;2301996;58;21712;-77
2022/08/07 12:24:37;;;;;;;6.37;2.78;;;;;;;;;;2302973;54;21540;-77
2022/08/07 12:27:08;;;;;;;4.22;2.60;;;;;;;;;;2302229;58;22192;-77
2022/08/07 12:29:41;;;;;;;4.87;2.50;;;;;;;;;;2302438;58;21062;-77
2022/08/07 12:32:13;;;;;;;4.23;2.27;;;;;;;;;;2302997;58;21039;-77
2022/08/07 12:34:41;;;;;;;3.72;2.33;;;;;;;;;;2301368;56;21321;-78
2022/08/07 12:37:10;;;;;;;4.30;2.58;;;;;;;;;;2299956;58;21082;-77
2022/08/07 12:39:40;;;;;;;3.67;2.67;;;;;;;;;;2301669;58;21083;-76
2022/08/07 12:42:09;;;;;;;5.22;2.60;;;;;;;;;;2299780;58;21070;-73
2022/08/07 12:44:36;;;;;;;2.78;2.50;;;;;;;;;;2301499;58;21070;-76
2022/08/07 12:47:14;;;;;;;4.10;2.62;;;;;;;;;;2301470;58;21546;-77
2022/08/07 12:49:56;;;;;;;3.00;2.62;;;;;;;;;;2311177;54;21018;-77
2022/08/07 12:52:29;;;;;;;4.70;2.58;;;;;;;;;;2305628;54;21062;-77
2022/08/07 12:55:00;;;;;;;4.63;2.50;;;;;;;;;;2301012;58;21111;-76
2022/08/07 12:57:30;;;;;;;3.00;2.50;;;;;;;;;;2300881;58;21078;-77
2022/08/07 12:59:59;;;;;;;4.25;3.05;;;;;;;;;;2363896;54;21098;-78
2022/08/07 13:02:40;;;;;;;3.80;2.58;;;;;;;;;;2317535;54;21632;-78
2022/08/07 13:05:17;;;;;;;5.60;2.60;;;;;;;;;;2300885;58;21138;-78
2022/08/07 13:08:15;;;;;;;3.58;2.67;;;;;;;;;;2301511;58;21216;-78
2022/08/07 13:10:49;;;;;;;2.47;2.15;;;;;;;;;;2259779;58;21065;-77
2022/08/07 13:13:29;;;;;;;5.40;2.70;;;;;;;;;;2302908;58;21126;-74
2022/08/07 13:16:00;;;;;;;2.80;2.50;;;;;;;;;;2312235;54;21058;-75
2022/08/07 13:18:31;;;;;;;6.28;2.78;;;;;;;;;;2360083;54;21071;-76
2022/08/07 13:21:02;;;;;;;3.62;2.70;;;;;;;;;;2303985;54;21062;-76
2022/08/07 13:23:32;;;;;;;4.05;3.17;;;;;;;;;;2302527;58;21066;-78
2022/08/07 13:26:03;;;;;;;3.80;2.40;;;;;;;;;;2301653;58;21054;-78
2022/08/07 13:28:34;;;;;;;3.58;2.78;;;;;;;;;;2316603;54;21066;-78
2022/08/07 13:31:04;;;;;;;3.83;2.65;;;;;;;;;;2318538;54;21116;-76
2022/08/07 13:33:37;;;;;;;3.70;2.80;;;;;;;;;;2302684;56;21090;-77
2022/08/07 13:36:08;;;;;;;3.37;2.55;;;;;;;;;;2355440;54;21102;-76
2022/08/07 13:38:40;;;;;;;3.95;2.60;;;;;;;;;;2303338;54;21065;-76
2022/08/07 13:41:17;;;;;;;5.28;3.05;;;;;;;;;;2310181;54;21078;-78
2022/08/07 13:43:46;;;;;;;3.22;2.70;;;;;;;;;;2310647;54;21106;-76
2022/08/07 13:46:14;;;;;;;4.90;2.28;;;;;;;;;;2301403;56;21384;-75
2022/08/07 13:48:46;;;;;;;4.05;2.75;;;;;;;;;;2308411;54;21696;-76
2022/08/07 13:51:13;;;;;;;6.75;2.80;;;;;;;;;;2302470;54;21461;-77
2022/08/07 13:53:43;;;;;;;5.95;2.42;;;;;;;;;;2302509;58;21141;-76
2022/08/07 13:56:11;;;;;;;4.20;2.42;;;;;;;;;;2301257;56;21129;-76
2022/08/07 14:01:27;;;;;;;3.20;2.45;;;;;;;;;;2301795;54;21109;-77
2022/08/07 14:03:56;;;;;;;3.28;2.80;;;;;;;;;;2300775;58;21062;-75
2022/08/07 14:06:23;;;;;;;4.15;2.60;;;;;;;;;;2322469;54;21126;-76
2022/08/07 14:08:52;;;;;;;8.50;2.67;;;;;;;;;;2305454;54;21537;-76
2022/08/07 14:11:22;;;;;;;4.00;2.95;;;;;;;;;;2306244;54;21053;-77
2022/08/07 14:13:54;;;;;;;5.78;2.92;;;;;;;;;;2301528;58;21086;-77
2022/08/07 14:16:24;;;;;;;3.72;2.70;;;;;;;;;;2325477;54;21080;-78
2022/08/07 14:18:52;;;;;;;3.75;2.40;;;;;;;;;;2301020;58;21066;-77
2022/08/07 14:21:22;;;;;;;3.05;2.53;;;;;;;;;;2311008;54;21137;-77
2022/08/07 14:23:51;;;;;;;3.28;2.72;;;;;;;;;;2306958;54;21111;-77
2022/08/07 14:26:21;;;;;;;4.20;3.03;;;;;;;;;;2327055;54;21138;-77
2022/08/07 14:28:49;;;;;;;6.97;2.60;;;;;;;;;;2315671;54;21066;-77
2022/08/07 14:31:16;;;;;;;3.42;2.55;;;;;;;;;;2300418;58;21086;-77
2022/08/07 14:33:44;;;;;;;4.50;2.67;;;;;;;;;;2300477;58;21050;-77
2022/08/07 14:36:11;;;;;;;3.62;2.60;;;;;;;;;;2299246;58;21066;-77
2022/08/07 14:38:39;;;;;;;3.22;2.42;;;;;;;;;;2305792;54;21050;-77
2022/08/07 14:41:08;;;;;;;5.00;2.60;;;;;;;;;;2302265;54;21525;-77
2022/08/07 14:43:38;;;;;;;3.28;2.62;;;;;;;;;;2300609;58;21078;-77
2022/08/07 14:46:06;;;;;;;4.12;2.92;;;;;;;;;;2299246;58;21070;-76
2022/08/07 14:48:35;;;;;;;4.20;2.67;;;;;;;;;;2297303;58;21126;-77
2022/08/07 14:51:06;;;;;;;5.78;2.62;;;;;;;;;;2301544;54;21114;-77
2022/08/07 14:53:36;;;;;;;2.97;2.45;;;;;;;;;;2299642;58;21565;-77
2022/08/07 14:56:04;;;;;;;4.82;2.67;;;;;;;;;;2298375;58;21053;-76
2022/08/07 14:58:33;;;;;;;3.37;2.78;;;;;;;;;;2300234;58;21046;-77
2022/08/07 15:01:01;;;;;;;4.07;2.60;;;;;;;;;;2300225;58;21066;-78
2022/08/07 15:03:29;;;;;;;6.03;2.97;;;;;;;;;;2300184;58;21034;-77
2022/08/07 15:05:57;;;;;;;3.12;2.55;;;;;;;;;;2299762;58;21625;-77
2022/08/07 15:08:26;;;;;;;4.05;2.67;;;;;;;;;;2300177;58;21150;-76
2022/08/07 15:10:58;;;;;;;2.78;2.58;;;;;;;;;;2446975;54;21082;-77